NCAR-RAP Real-Time Weather Data

Output produced by METARs form (23 January 2018  15:40 UTC)
found at http://weather.rap.ucar.edu/surface/
 
RJSY 231200Z 30020G33KT 7000 -SHSN FEW008 SCT015 BKN030 M00/M05 Q1007
RJSY 231100Z 31018G34KT 280V340 3000 -SHSN FEW003 SCT010 BKN015 M00/M04 Q1006
RJSY 231000Z 31016G29KT 250V330 5000 -SHSN FEW004 SCT010 BKN020 00/M04 Q1005
RJSY 230940Z 31016G28KT 280V350 4500 R09/1800U -SHSN FEW003 SCT008 BKN015 M01/M04 Q1005 RMK 1ST003 3ST008 6CU015 A2969
RJSY 230933Z 30018G31KT 270V340 0800 R09/1600VP1800D SHSN FEW003 SCT005 BKN010 M00/M04 Q1005 RMK 1ST003 3ST005 6ST010 A2969
RJSY 230913Z 31016G27KT 270V340 4500 -SHSN FEW004 SCT010 BKN020 00/M03 Q1005 RMK 1ST004 3ST010 6CU020 A2968
RJSY 230900Z 30014KT 260V340 2500 -SHSN FEW003 SCT008 BKN015 00/M03 Q1004
RJSY 230840Z 30016G28KT 260V330 1000 R09/P1800N -SHSN FEW003 SCT008 BKN010 M00/M03 Q1004 RMK 1ST003 3ST008 6ST010 A2966
RJSY 230832Z 30018G31KT 1500 R09/P1800N -SHSN FEW005 SCT010 BKN015 01/M03 Q1004 RMK 1ST005 3ST010 5CU015 A2965
RJSY 230827Z 30017G31KT 270V330 4500 -SHSN FEW008 SCT015 BKN030 01/M04 Q1003 RMK 1ST008 3CU015 6CU030 A2964
RJSY 230800Z 31013G24KT 280V360 9999 -SHSN FEW010 SCT020 BKN030 01/M03 Q1003
RJSY 230700Z 29018G29KT 270V330 9999 -SHSN FEW010 SCT015 BKN030 02/M04 Q1002
RJSY 230634Z 29020G33KT 4000 -SHSNRA FEW008 SCT015 BKN030 02/M02 Q1002 RMK 1ST008 3CU015 7CU030 A2959 P/RR
RJSY 230600Z 29020G32KT 8000 -SHRASN FEW010 SCT020 BKN030 03/M02 Q1000
RJSY 230500Z 27028G41KT 7000 -SHRASN FEW006 SCT015 BKN030 02/M01 Q0999
RJSY 230432Z 26029G43KT 8000 -SHRA FEW010 SCT020 BKN030 03/M00 Q0998 RMK 1ST010 3CU020 6CU030 A2949 P/RR
RJSY 230421Z 27029G42KT 4500 -SHGSSN FEW010 SCT020 BKN040 03/M01 Q0998 RMK 1ST010 3CU020 6CU040 A2948 SNOW PELLETS
RJSY 230400Z 26025G37KT 9999 VCSH FEW010 SCT030 BKN040 05/00 Q0997
RJSY 230326Z 23030G49KT 7000 -TSRA FEW008 SCT015 FEW020CB BKN030 04/02 Q0997 RMK 1ST008 3CU015 1CB020 7CU030 A2945 FBL TS 10KM S MOV NE
RJSY 230317Z 24031G49KT 7000 -SHRA FEW008 SCT015 FEW020CB BKN025 04/02 Q0997 RMK 1ST008 3CU015 1CB020 7CU025 A2946 CB 15KM S MOV NE
RJSY 230300Z 24038KT 2500 R09/1400VP1800D -TSRA BR FEW007 SCT015 FEW020CB BKN025 04/02 Q0998
RJSY 230241Z 20015KT 4500 R09/1700U -TSRA BR FEW010 SCT015 FEW020CB BKN025 02/00 Q0998 RMK 1ST010 3CU015 1CB020 7CU025 A2947 FBL TS OHD MOV NE
RJSY 230230Z 20009KT 170V230 3000 -TSGSRA BR FEW010 SCT020 FEW020CB BKN025 02/01 Q0998 RMK 1ST010 4CU020 1CB020 7CU025 A2949 FBL TS OHD MOV NE SMALL HAIL
RJSY 230219Z 16007KT 130V230 9999 -TSRA FEW010 SCT020 FEW020CB BKN030 02/00 Q0998 RMK 1ST010 4CU020 1CB020 7CU030 A2947 FBL TS 20KM SW MOV NE P/FR
RJSY 230200Z 17010KT 140V200 6000 -SHRA FEW010 SCT020 BKN030 02/00 Q0999
RJSY 230100Z 19005KT 150V220 8000 -SHRA FEW010 SCT015 BKN025 03/00 Q1000
RJSY 230000Z 09007KT 9999 FEW025 SCT045 BKN080 01/M02 Q1000
RJSY 222300Z 09011KT 9999 FEW025 SCT035 BKN090 00/M02 Q1001
RJSY 222200Z 11009KT 9999 FEW025 SCT030 BKN050 M00/M02 Q1002
RJSY 221200Z 10013KT 5000 -SN FEW005 SCT010 BKN020 M01/M03 Q1011
RJSY 221125Z 10012KT 6000 -SN FEW005 SCT010 BKN020 M02/M03 Q1012 RMK 1ST005 3ST010 6SC020 A2990 P/FR
RJSY 221100Z 10010KT 3000 -SN FEW005 SCT008 BKN015 M02/M03 Q1013
RJSY 221040Z 11010KT 1500 R09/P1800N -SN FEW003 SCT007 BKN010 M02/M03 Q1013 RMK 1ST003 3ST007 7ST010 A2994
RJSY 221000Z 12010KT 2500 -SN FEW005 SCT010 BKN020 M02/M04 Q1014
RJSY 220900Z 11010KT 4500 -SN FEW007 SCT015 BKN030 M01/M04 Q1015
RJSY 220800Z 10014KT 4000 -SN FEW010 SCT015 BKN030 M01/M04 Q1015
RJSY 220743Z 10013KT 4000 -SN FEW010 SCT020 BKN030 M01/M05 Q1015 RMK 1ST010 3SC020 6SC030 A2999
RJSY 220700Z 10015KT 9999 FEW020 SCT030 BKN050 M00/M06 Q1015
RJSY 220600Z 09012KT 9999 FEW030 SCT050 BKN070 M00/M07 Q1015
RJSY 220500Z 09013KT 9999 FEW040 BKN060 M01/M07 Q1015
RJSY 220400Z 08014KT 9999 FEW050 SCT080 BKN100 M01/M06 Q1017
RJSY 220300Z 09013KT 9999 FEW050 SCT090 BKN110 M01/M07 Q1019
RJSY 220200Z 10013KT 9999 FEW040 SCT120 BKN140 M02/M07 Q1020
RJSY 220100Z 10010KT CAVOK M03/M07 Q1022
RJSY 220000Z 09008KT 9999 FEW040 BKN150 M04/M07 Q1023
RJSY 212300Z 14005KT 9999 FEW040 SCT170 BKN/// M03/M07 Q1023
RJSY 212200Z 12005KT 9999 FEW030 SCT040 BKN/// M03/M08 Q1023
RJSY 211200Z 29007KT 260V360 9999 -SHSN FEW010 SCT030 BKN040 00/M08 Q1023
RJSY 211100Z 31006G16KT 270V360 9999 -SHSN FEW010 SCT035 BKN050 00/M07 Q1022
RJSY 211000Z 31007G18KT 260V010 9999 FEW010 SCT030 BKN040 00/M07 Q1022
RJSY 210927Z 32008G18KT 260V020 9999 -SHSN FEW005 SCT015 BKN030 00/M05 Q1021 RMK 1ST005 3CU015 6CU030 A3017
RJSY 210914Z 35007KT 310V040 4000 -SHSN FEW005 SCT010 BKN015 M01/M04 Q1022 RMK 1ST005 3ST010 6CU015 A3018
RJSY 210900Z 33008KT 280V030 2000 -SHSN FEW005 SCT008 BKN015 M01/M04 Q1021
RJSY 210842Z 32010G20KT 290V020 1500 R09/P1800N -SHSN FEW003 SCT006 BKN010 M00/M04 Q1021 RMK 1ST003 3ST006 6ST010 A3017
RJSY 210825Z 32010KT 260V010 4000 -SHSN FEW005 SCT010 BKN015 M00/M04 Q1021 RMK 1ST005 3ST010 6CU015 A3016
RJSY 210817Z 33010KT 280V010 2500 -SHSN FEW003 SCT008 BKN010 M01/M03 Q1021 RMK 1ST003 3ST008 6ST010 A3016
RJSY 210800Z 33010KT 300V040 1500 R09/P1800N -SHSN FEW003 SCT007 BKN010 M00/M03 Q1021
RJSY 210739Z 32011KT 270V030 2000 -SHSN FEW003 SCT007 BKN010 M00/M03 Q1020 RMK 1ST003 3ST007 6ST010 A3015
RJSY 210711Z 33009G20KT 280V020 3500 -SHSN FEW003 SCT008 BKN015 M00/M03 Q1020 RMK 1ST003 3ST008 6CU015 A3013
RJSY 210700Z 33011KT 300V020 2000 -SHSN FEW003 SCT006 BKN010 M00/M03 Q1020
RJSY 210642Z 33008KT 290V040 3000 -SHSN FEW003 SCT007 BKN015 00/M03 Q1019 RMK 1ST003 3ST007 7CU015 A3011
RJSY 210620Z 33008KT 290V020 5000 -SHSN FEW004 SCT008 BKN015 00/M03 Q1019 RMK 1ST004 3ST008 6CU015 A3009
RJSY 210600Z 34009KT 290V030 3000 -SHSN FEW003 SCT007 BKN015 00/M02 Q1018
RJSY 210535Z 34009KT 300V040 3500 -SHSN FEW003 SCT007 BKN015 01/M03 Q1018 RMK 1ST003 3ST007 7CU015 A3007
RJSY 210500Z 34012G22KT 300V020 7000 -SHSN FEW004 SCT007 BKN015 01/M01 Q1017
RJSY 210438Z 34013KT 300V020 1500 R09/1500VP1800D -SHSN FEW003 SCT005 BKN008 00/M01 Q1016 RMK 1ST003 3ST005 5ST008 A3002
RJSY 210400Z 34009G19KT 310V030 3000 -SHSNRA BR FEW003 SCT007 BKN010 01/M00 Q1015